sensor_id;sensor_type;location;lat;lon;timestamp;temperature;humidity
57410;DHT22;46044;44.738;20.394;2022-08-24T00:00:06;20.00;93.00
57410;DHT22;46044;44.738;20.394;2022-08-24T00:02:33;20.00;93.00
57410;DHT22;46044;44.738;20.394;2022-08-24T00:05:01;20.00;93.00
57410;DHT22;46044;44.738;20.394;2022-08-24T00:07:27;20.00;93.00
57410;DHT22;46044;44.738;20.394;2022-08-24T00:09:53;20.00;93.00
57410;DHT22;46044;44.738;20.394;2022-08-24T00:12:20;21.00;94.00
57410;DHT22;46044;44.738;20.394;2022-08-24T00:14:46;20.00;93.00
57410;DHT22;46044;44.738;20.394;2022-08-24T00:17:12;20.00;93.00
57410;DHT22;46044;44.738;20.394;2022-08-24T00:19:38;20.00;93.00
57410;DHT22;46044;44.738;20.394;2022-08-24T00:22:05;20.00;93.00
57410;DHT22;46044;44.738;20.394;2022-08-24T00:24:31;20.00;93.00
57410;DHT22;46044;44.738;20.394;2022-08-24T00:26:58;20.00;93.00
57410;DHT22;46044;44.738;20.394;2022-08-24T00:29:25;20.00;93.00
57410;DHT22;46044;44.738;20.394;2022-08-24T00:31:51;20.00;93.00
57410;DHT22;46044;44.738;20.394;2022-08-24T00:34:17;20.00;93.00
57410;DHT22;46044;44.738;20.394;2022-08-24T00:36:45;20.00;93.00
57410;DHT22;46044;44.738;20.394;2022-08-24T00:39:11;20.00;93.00
57410;DHT22;46044;44.738;20.394;2022-08-24T00:41:44;20.00;93.00
57410;DHT22;46044;44.738;20.394;2022-08-24T00:44:11;20.00;93.00
57410;DHT22;46044;44.738;20.394;2022-08-24T00:46:55;20.00;93.00
57410;DHT22;46044;44.738;20.394;2022-08-24T00:49:34;20.00;93.00
57410;DHT22;46044;44.738;20.394;2022-08-24T00:52:14;20.00;93.00
57410;DHT22;46044;44.738;20.394;2022-08-24T00:54:45;20.00;93.00
57410;DHT22;46044;44.738;20.394;2022-08-24T00:57:14;20.00;93.00
57410;DHT22;46044;44.738;20.394;2022-08-24T00:59:47;20.00;93.00
57410;DHT22;46044;44.738;20.394;2022-08-24T01:02:19;20.00;93.00
57410;DHT22;46044;44.738;20.394;2022-08-24T01:05:01;20.00;93.00
57410;DHT22;46044;44.738;20.394;2022-08-24T01:07:30;20.00;93.00
57410;DHT22;46044;44.738;20.394;2022-08-24T01:10:06;20.00;93.00
57410;DHT22;46044;44.738;20.394;2022-08-24T01:12:35;20.00;93.00
57410;DHT22;46044;44.738;20.394;2022-08-24T01:15:04;20.00;93.00
57410;DHT22;46044;44.738;20.394;2022-08-24T01:17:32;20.00;93.00
57410;DHT22;46044;44.738;20.394;2022-08-24T01:20:18;20.00;93.00
57410;DHT22;46044;44.738;20.394;2022-08-24T01:25:34;20.00;93.00
57410;DHT22;46044;44.738;20.394;2022-08-24T01:28:06;20.00;93.00
57410;DHT22;46044;44.738;20.394;2022-08-24T01:30:32;20.00;93.00
57410;DHT22;46044;44.738;20.394;2022-08-24T01:33:02;20.00;93.00
57410;DHT22;46044;44.738;20.394;2022-08-24T01:35:30;20.00;93.00
57410;DHT22;46044;44.738;20.394;2022-08-24T01:38:00;20.00;93.00
57410;DHT22;46044;44.738;20.394;2022-08-24T01:40:33;20.00;93.00
57410;DHT22;46044;44.738;20.394;2022-08-24T01:43:00;20.00;93.00
57410;DHT22;46044;44.738;20.394;2022-08-24T01:45:29;20.00;93.00
57410;DHT22;46044;44.738;20.394;2022-08-24T01:47:55;20.00;93.00
57410;DHT22;46044;44.738;20.394;2022-08-24T01:50:24;20.00;93.00
57410;DHT22;46044;44.738;20.394;2022-08-24T01:52:51;20.00;93.00
57410;DHT22;46044;44.738;20.394;2022-08-24T01:55:19;20.00;93.00
57410;DHT22;46044;44.738;20.394;2022-08-24T01:57:45;20.00;93.00
57410;DHT22;46044;44.738;20.394;2022-08-24T02:00:12;20.00;93.00
57410;DHT22;46044;44.738;20.394;2022-08-24T02:02:43;20.00;93.00
57410;DHT22;46044;44.738;20.394;2022-08-24T02:05:12;20.00;93.00
57410;DHT22;46044;44.738;20.394;2022-08-24T02:07:38;20.00;93.00
57410;DHT22;46044;44.738;20.394;2022-08-24T02:10:07;20.00;93.00
57410;DHT22;46044;44.738;20.394;2022-08-24T02:12:38;20.00;93.00
57410;DHT22;46044;44.738;20.394;2022-08-24T02:15:06;20.00;93.00
57410;DHT22;46044;44.738;20.394;2022-08-24T02:17:34;20.00;93.00
57410;DHT22;46044;44.738;20.394;2022-08-24T02:20:11;20.00;93.00
57410;DHT22;46044;44.738;20.394;2022-08-24T02:22:52;20.00;93.00
57410;DHT22;46044;44.738;20.394;2022-08-24T02:25:20;20.00;93.00
57410;DHT22;46044;44.738;20.394;2022-08-24T02:27:47;20.00;93.00
57410;DHT22;46044;44.738;20.394;2022-08-24T02:30:15;20.00;93.00
57410;DHT22;46044;44.738;20.394;2022-08-24T02:32:49;20.00;93.00
57410;DHT22;46044;44.738;20.394;2022-08-24T02:35:28;20.00;93.00
57410;DHT22;46044;44.738;20.394;2022-08-24T02:38:05;20.00;93.00
57410;DHT22;46044;44.738;20.394;2022-08-24T02:40:39;20.00;93.00
57410;DHT22;46044;44.738;20.394;2022-08-24T02:43:15;20.00;93.00
57410;DHT22;46044;44.738;20.394;2022-08-24T02:45:51;20.00;93.00
57410;DHT22;46044;44.738;20.394;2022-08-24T02:48:30;20.00;93.00
57410;DHT22;46044;44.738;20.394;2022-08-24T02:51:27;20.00;93.00
57410;DHT22;46044;44.738;20.394;2022-08-24T02:54:02;20.00;93.00
57410;DHT22;46044;44.738;20.394;2022-08-24T02:56:35;20.00;93.00
57410;DHT22;46044;44.738;20.394;2022-08-24T02:59:14;20.00;93.00
57410;DHT22;46044;44.738;20.394;2022-08-24T03:01:54;20.00;93.00
57410;DHT22;46044;44.738;20.394;2022-08-24T03:04:31;20.00;93.00
57410;DHT22;46044;44.738;20.394;2022-08-24T03:07:07;20.00;93.00
57410;DHT22;46044;44.738;20.394;2022-08-24T03:09:43;20.00;93.00
57410;DHT22;46044;44.738;20.394;2022-08-24T03:12:10;20.00;93.00
57410;DHT22;46044;44.738;20.394;2022-08-24T03:14:37;20.00;93.00
57410;DHT22;46044;44.738;20.394;2022-08-24T03:17:03;20.00;93.00
57410;DHT22;46044;44.738;20.394;2022-08-24T03:19:29;20.00;93.00
57410;DHT22;46044;44.738;20.394;2022-08-24T03:21:56;20.00;93.00
57410;DHT22;46044;44.738;20.394;2022-08-24T03:24:22;20.00;93.00
57410;DHT22;46044;44.738;20.394;2022-08-24T03:26:49;20.00;93.00
57410;DHT22;46044;44.738;20.394;2022-08-24T03:29:15;20.00;93.00
57410;DHT22;46044;44.738;20.394;2022-08-24T03:31:42;20.00;93.00
57410;DHT22;46044;44.738;20.394;2022-08-24T03:34:09;20.00;93.00
57410;DHT22;46044;44.738;20.394;2022-08-24T03:36:40;20.00;93.00
57410;DHT22;46044;44.738;20.394;2022-08-24T03:39:07;20.00;93.00
57410;DHT22;46044;44.738;20.394;2022-08-24T03:41:33;20.00;93.00
57410;DHT22;46044;44.738;20.394;2022-08-24T03:43:59;20.00;93.00
57410;DHT22;46044;44.738;20.394;2022-08-24T03:46:27;20.00;93.00
57410;DHT22;46044;44.738;20.394;2022-08-24T03:48:55;20.00;93.00
57410;DHT22;46044;44.738;20.394;2022-08-24T03:51:25;20.00;93.00
57410;DHT22;46044;44.738;20.394;2022-08-24T03:53:55;20.00;93.00
57410;DHT22;46044;44.738;20.394;2022-08-24T03:56:24;20.00;93.00
57410;DHT22;46044;44.738;20.394;2022-08-24T03:58:51;20.00;93.00
57410;DHT22;46044;44.738;20.394;2022-08-24T04:01:18;20.00;93.00
57410;DHT22;46044;44.738;20.394;2022-08-24T04:03:45;20.00;93.00
57410;DHT22;46044;44.738;20.394;2022-08-24T04:06:16;20.00;93.00
57410;DHT22;46044;44.738;20.394;2022-08-24T04:08:43;20.00;93.00
57410;DHT22;46044;44.738;20.394;2022-08-24T04:11:17;20.00;93.00
57410;DHT22;46044;44.738;20.394;2022-08-24T04:13:45;20.00;93.00
57410;DHT22;46044;44.738;20.394;2022-08-24T04:16:13;20.00;93.00
57410;DHT22;46044;44.738;20.394;2022-08-24T04:18:42;20.00;93.00
57410;DHT22;46044;44.738;20.394;2022-08-24T04:21:21;20.00;93.00
57410;DHT22;46044;44.738;20.394;2022-08-24T04:23:48;20.00;93.00
57410;DHT22;46044;44.738;20.394;2022-08-24T04:26:18;20.00;93.00
57410;DHT22;46044;44.738;20.394;2022-08-24T04:28:45;20.00;93.00
57410;DHT22;46044;44.738;20.394;2022-08-24T04:31:11;20.00;93.00
57410;DHT22;46044;44.738;20.394;2022-08-24T04:33:43;20.00;93.00
57410;DHT22;46044;44.738;20.394;2022-08-24T04:36:10;20.00;93.00
57410;DHT22;46044;44.738;20.394;2022-08-24T04:38:42;20.00;93.00
57410;DHT22;46044;44.738;20.394;2022-08-24T04:41:21;20.00;93.00
57410;DHT22;46044;44.738;20.394;2022-08-24T04:43:47;20.00;93.00
57410;DHT22;46044;44.738;20.394;2022-08-24T04:46:17;20.00;93.00
57410;DHT22;46044;44.738;20.394;2022-08-24T04:48:47;20.00;93.00
57410;DHT22;46044;44.738;20.394;2022-08-24T04:51:15;20.00;93.00
57410;DHT22;46044;44.738;20.394;2022-08-24T04:53:44;20.00;93.00
57410;DHT22;46044;44.738;20.394;2022-08-24T04:56:17;20.00;93.00
57410;DHT22;46044;44.738;20.394;2022-08-24T04:58:43;20.00;93.00
57410;DHT22;46044;44.738;20.394;2022-08-24T05:01:19;20.00;93.00
57410;DHT22;46044;44.738;20.394;2022-08-24T05:03:47;20.00;93.00
57410;DHT22;46044;44.738;20.394;2022-08-24T05:08:58;21.00;94.00
57410;DHT22;46044;44.738;20.394;2022-08-24T05:11:27;21.00;94.00
57410;DHT22;46044;44.738;20.394;2022-08-24T05:14:01;21.00;94.00
57410;DHT22;46044;44.738;20.394;2022-08-24T05:16:42;21.00;94.00
57410;DHT22;46044;44.738;20.394;2022-08-24T05:22:36;21.00;94.00
57410;DHT22;46044;44.738;20.394;2022-08-24T05:25:04;21.00;94.00
57410;DHT22;46044;44.738;20.394;2022-08-24T05:27:33;21.00;94.00
57410;DHT22;46044;44.738;20.394;2022-08-24T05:29:59;21.00;94.00
57410;DHT22;46044;44.738;20.394;2022-08-24T05:32:27;21.00;94.00
57410;DHT22;46044;44.738;20.394;2022-08-24T05:34:59;21.00;94.00
57410;DHT22;46044;44.738;20.394;2022-08-24T05:37:31;21.00;94.00
57410;DHT22;46044;44.738;20.394;2022-08-24T05:40:11;21.00;94.00
57410;DHT22;46044;44.738;20.394;2022-08-24T05:42:44;21.00;94.00
57410;DHT22;46044;44.738;20.394;2022-08-24T05:45:11;21.00;94.00
57410;DHT22;46044;44.738;20.394;2022-08-24T05:47:38;21.00;94.00
57410;DHT22;46044;44.738;20.394;2022-08-24T05:50:18;21.00;94.00
57410;DHT22;46044;44.738;20.394;2022-08-24T05:52:47;21.00;94.00
57410;DHT22;46044;44.738;20.394;2022-08-24T05:55:16;21.00;94.00
57410;DHT22;46044;44.738;20.394;2022-08-24T05:57:43;21.00;94.00
57410;DHT22;46044;44.738;20.394;2022-08-24T06:00:16;21.00;94.00
57410;DHT22;46044;44.738;20.394;2022-08-24T06:02:45;21.00;94.00
57410;DHT22;46044;44.738;20.394;2022-08-24T06:05:13;21.00;94.00
57410;DHT22;46044;44.738;20.394;2022-08-24T06:07:43;21.00;94.00
57410;DHT22;46044;44.738;20.394;2022-08-24T06:10:11;21.00;94.00
57410;DHT22;46044;44.738;20.394;2022-08-24T06:12:41;21.00;94.00
57410;DHT22;46044;44.738;20.394;2022-08-24T06:15:10;21.00;94.00
57410;DHT22;46044;44.738;20.394;2022-08-24T06:17:37;21.00;94.00
57410;DHT22;46044;44.738;20.394;2022-08-24T06:20:05;21.00;94.00
57410;DHT22;46044;44.738;20.394;2022-08-24T06:22:32;21.00;94.00
57410;DHT22;46044;44.738;20.394;2022-08-24T06:25:04;21.00;94.00
57410;DHT22;46044;44.738;20.394;2022-08-24T06:27:53;21.00;94.00
57410;DHT22;46044;44.738;20.394;2022-08-24T06:30:21;21.00;94.00
57410;DHT22;46044;44.738;20.394;2022-08-24T06:33:04;21.00;94.00
57410;DHT22;46044;44.738;20.394;2022-08-24T06:35:39;21.00;94.00
57410;DHT22;46044;44.738;20.394;2022-08-24T06:38:09;21.00;94.00
57410;DHT22;46044;44.738;20.394;2022-08-24T06:40:38;21.00;94.00
57410;DHT22;46044;44.738;20.394;2022-08-24T06:43:10;21.00;94.00
57410;DHT22;46044;44.738;20.394;2022-08-24T06:45:55;21.00;94.00
57410;DHT22;46044;44.738;20.394;2022-08-24T06:48:27;21.00;94.00
57410;DHT22;46044;44.738;20.394;2022-08-24T06:50:58;21.00;94.00
57410;DHT22;46044;44.738;20.394;2022-08-24T06:53:24;21.00;94.00
57410;DHT22;46044;44.738;20.394;2022-08-24T06:55:58;21.00;94.00
57410;DHT22;46044;44.738;20.394;2022-08-24T06:58:27;21.00;94.00
57410;DHT22;46044;44.738;20.394;2022-08-24T07:00:54;21.00;94.00
57410;DHT22;46044;44.738;20.394;2022-08-24T07:03:24;21.00;94.00
57410;DHT22;46044;44.738;20.394;2022-08-24T07:06:01;21.00;94.00
57410;DHT22;46044;44.738;20.394;2022-08-24T07:08:40;21.00;94.00
57410;DHT22;46044;44.738;20.394;2022-08-24T07:11:09;21.00;94.00
57410;DHT22;46044;44.738;20.394;2022-08-24T07:13:39;21.00;94.00
57410;DHT22;46044;44.738;20.394;2022-08-24T07:16:06;21.00;94.00
57410;DHT22;46044;44.738;20.394;2022-08-24T07:18:35;21.00;94.00
57410;DHT22;46044;44.738;20.394;2022-08-24T07:21:03;21.00;94.00
57410;DHT22;46044;44.738;20.394;2022-08-24T07:23:48;21.00;94.00
57410;DHT22;46044;44.738;20.394;2022-08-24T07:26:19;21.00;94.00
57410;DHT22;46044;44.738;20.394;2022-08-24T07:29:00;21.00;94.00
57410;DHT22;46044;44.738;20.394;2022-08-24T07:31:36;21.00;94.00
57410;DHT22;46044;44.738;20.394;2022-08-24T07:34:26;21.00;94.00
57410;DHT22;46044;44.738;20.394;2022-08-24T07:36:53;21.00;94.00
57410;DHT22;46044;44.738;20.394;2022-08-24T07:39:27;21.00;94.00
57410;DHT22;46044;44.738;20.394;2022-08-24T07:41:54;22.00;95.00
57410;DHT22;46044;44.738;20.394;2022-08-24T07:44:22;22.00;95.00
57410;DHT22;46044;44.738;20.394;2022-08-24T07:46:48;22.00;95.00
57410;DHT22;46044;44.738;20.394;2022-08-24T07:49:14;22.00;95.00
57410;DHT22;46044;44.738;20.394;2022-08-24T07:51:41;22.00;95.00
57410;DHT22;46044;44.738;20.394;2022-08-24T07:54:13;22.00;95.00
57410;DHT22;46044;44.738;20.394;2022-08-24T07:56:42;22.00;95.00
57410;DHT22;46044;44.738;20.394;2022-08-24T07:59:08;22.00;95.00
57410;DHT22;46044;44.738;20.394;2022-08-24T08:01:35;22.00;95.00
57410;DHT22;46044;44.738;20.394;2022-08-24T08:04:06;22.00;95.00
57410;DHT22;46044;44.738;20.394;2022-08-24T08:06:48;22.00;95.00
57410;DHT22;46044;44.738;20.394;2022-08-24T08:09:22;22.00;95.00
57410;DHT22;46044;44.738;20.394;2022-08-24T08:11:49;22.00;95.00
57410;DHT22;46044;44.738;20.394;2022-08-24T08:14:24;22.00;95.00
57410;DHT22;46044;44.738;20.394;2022-08-24T08:16:55;22.00;95.00
57410;DHT22;46044;44.738;20.394;2022-08-24T08:19:25;22.00;95.00
57410;DHT22;46044;44.738;20.394;2022-08-24T08:21:53;22.00;95.00
57410;DHT22;46044;44.738;20.394;2022-08-24T08:24:59;22.00;95.00
57410;DHT22;46044;44.738;20.394;2022-08-24T08:27:33;22.00;95.00
57410;DHT22;46044;44.738;20.394;2022-08-24T08:30:02;22.00;95.00
57410;DHT22;46044;44.738;20.394;2022-08-24T08:32:29;22.00;95.00
57410;DHT22;46044;44.738;20.394;2022-08-24T08:34:56;22.00;95.00
57410;DHT22;46044;44.738;20.394;2022-08-24T08:37:23;22.00;95.00
57410;DHT22;46044;44.738;20.394;2022-08-24T08:39:50;22.00;95.00
57410;DHT22;46044;44.738;20.394;2022-08-24T08:45:06;22.00;95.00
57410;DHT22;46044;44.738;20.394;2022-08-24T08:56:39;22.00;95.00
57410;DHT22;46044;44.738;20.394;2022-08-24T08:59:50;22.00;95.00
57410;DHT22;46044;44.738;20.394;2022-08-24T09:02:55;22.00;95.00
57410;DHT22;46044;44.738;20.394;2022-08-24T09:22:15;22.00;95.00
57410;DHT22;46044;44.738;20.394;2022-08-24T09:27:51;22.00;95.00
57410;DHT22;46044;44.738;20.394;2022-08-24T09:30:40;22.00;95.00
57410;DHT22;46044;44.738;20.394;2022-08-24T09:33:44;22.00;95.00
57410;DHT22;46044;44.738;20.394;2022-08-24T09:36:43;22.00;95.00
57410;DHT22;46044;44.738;20.394;2022-08-24T09:39:34;22.00;95.00
57410;DHT22;46044;44.738;20.394;2022-08-24T09:56:47;22.00;95.00
57410;DHT22;46044;44.738;20.394;2022-08-24T10:09:56;22.00;95.00
57410;DHT22;46044;44.738;20.394;2022-08-24T10:15:19;22.00;95.00
57410;DHT22;46044;44.738;20.394;2022-08-24T10:23:52;22.00;95.00
57410;DHT22;46044;44.738;20.394;2022-08-24T10:26:58;22.00;95.00
57410;DHT22;46044;44.738;20.394;2022-08-24T10:38:03;22.00;95.00
57410;DHT22;46044;44.738;20.394;2022-08-24T10:47:21;22.00;95.00
57410;DHT22;46044;44.738;20.394;2022-08-24T10:55:28;22.00;95.00
57410;DHT22;46044;44.738;20.394;2022-08-24T10:58:08;22.00;95.00
57410;DHT22;46044;44.738;20.394;2022-08-24T11:00:36;22.00;95.00
57410;DHT22;46044;44.738;20.394;2022-08-24T11:03:09;22.00;95.00
57410;DHT22;46044;44.738;20.394;2022-08-24T11:05:50;22.00;95.00
57410;DHT22;46044;44.738;20.394;2022-08-24T11:10:45;23.00;95.00
57410;DHT22;46044;44.738;20.394;2022-08-24T11:13:24;23.00;95.00
57410;DHT22;46044;44.738;20.394;2022-08-24T11:15:58;23.00;95.00
57410;DHT22;46044;44.738;20.394;2022-08-24T11:18:25;23.00;95.00
57410;DHT22;46044;44.738;20.394;2022-08-24T11:26:50;23.00;95.00
57410;DHT22;46044;44.738;20.394;2022-08-24T11:34:50;23.00;95.00
57410;DHT22;46044;44.738;20.394;2022-08-24T11:37:16;23.00;95.00
57410;DHT22;46044;44.738;20.394;2022-08-24T11:39:48;23.00;95.00
57410;DHT22;46044;44.738;20.394;2022-08-24T11:45:23;23.00;95.00
57410;DHT22;46044;44.738;20.394;2022-08-24T11:51:15;23.00;95.00
57410;DHT22;46044;44.738;20.394;2022-08-24T11:54:11;23.00;95.00
57410;DHT22;46044;44.738;20.394;2022-08-24T11:56:53;23.00;95.00
57410;DHT22;46044;44.738;20.394;2022-08-24T12:02:37;23.00;95.00
57410;DHT22;46044;44.738;20.394;2022-08-24T12:19:08;23.00;93.00
57410;DHT22;46044;44.738;20.394;2022-08-24T12:21:38;23.00;93.00
57410;DHT22;46044;44.738;20.394;2022-08-24T12:24:20;23.00;93.00
57410;DHT22;46044;44.738;20.394;2022-08-24T12:26:55;23.00;93.00
57410;DHT22;46044;44.738;20.394;2022-08-24T12:41:14;23.00;93.00
57410;DHT22;46044;44.738;20.394;2022-08-24T12:43:53;23.00;93.00
57410;DHT22;46044;44.738;20.394;2022-08-24T12:46:25;23.00;94.00
57410;DHT22;46044;44.738;20.394;2022-08-24T12:49:09;23.00;94.00
57410;DHT22;46044;44.738;20.394;2022-08-24T13:00:55;23.00;94.00
57410;DHT22;46044;44.738;20.394;2022-08-24T13:05:53;23.00;94.00
57410;DHT22;46044;44.738;20.394;2022-08-24T13:08:36;23.00;93.00
57410;DHT22;46044;44.738;20.394;2022-08-24T13:16:45;23.00;93.00
57410;DHT22;46044;44.738;20.394;2022-08-24T13:21:56;23.00;93.00
57410;DHT22;46044;44.738;20.394;2022-08-24T13:29:43;23.00;92.00
57410;DHT22;46044;44.738;20.394;2022-08-24T13:32:19;23.00;92.00
57410;DHT22;46044;44.738;20.394;2022-08-24T13:34:48;23.00;91.00
57410;DHT22;46044;44.738;20.394;2022-08-24T13:37:23;23.00;92.00
57410;DHT22;46044;44.738;20.394;2022-08-24T13:45:54;24.00;91.00
57410;DHT22;46044;44.738;20.394;2022-08-24T13:48:55;24.00;91.00
57410;DHT22;46044;44.738;20.394;2022-08-24T13:57:05;24.00;90.00
57410;DHT22;46044;44.738;20.394;2022-08-24T13:59:46;24.00;90.00
57410;DHT22;46044;44.738;20.394;2022-08-24T14:05:59;24.00;90.00
57410;DHT22;46044;44.738;20.394;2022-08-24T14:09:00;24.00;90.00
57410;DHT22;46044;44.738;20.394;2022-08-24T14:23:51;24.00;90.00
57410;DHT22;46044;44.738;20.394;2022-08-24T14:36:59;24.00;89.00
57410;DHT22;46044;44.738;20.394;2022-08-24T14:39:42;24.00;88.00
57410;DHT22;46044;44.738;20.394;2022-08-24T14:45:20;24.00;88.00
57410;DHT22;46044;44.738;20.394;2022-08-24T14:56:55;25.00;87.00
57410;DHT22;46044;44.738;20.394;2022-08-24T14:59:47;25.00;86.00
57410;DHT22;46044;44.738;20.394;2022-08-24T15:08:03;25.00;86.00
57410;DHT22;46044;44.738;20.394;2022-08-24T15:10:41;24.00;86.00
57410;DHT22;46044;44.738;20.394;2022-08-24T15:13:54;24.00;86.00
57410;DHT22;46044;44.738;20.394;2022-08-24T15:25:06;24.00;87.00
57410;DHT22;46044;44.738;20.394;2022-08-24T15:27:57;24.00;86.00
57410;DHT22;46044;44.738;20.394;2022-08-24T15:30:30;24.00;87.00
57410;DHT22;46044;44.738;20.394;2022-08-24T15:35:38;24.00;87.00
57410;DHT22;46044;44.738;20.394;2022-08-24T15:38:23;24.00;87.00
57410;DHT22;46044;44.738;20.394;2022-08-24T15:41:11;24.00;87.00
57410;DHT22;46044;44.738;20.394;2022-08-24T15:46:41;24.00;87.00
57410;DHT22;46044;44.738;20.394;2022-08-24T15:49:20;24.00;86.00
57410;DHT22;46044;44.738;20.394;2022-08-24T15:52:05;24.00;87.00
57410;DHT22;46044;44.738;20.394;2022-08-24T15:54:34;24.00;87.00
57410;DHT22;46044;44.738;20.394;2022-08-24T15:59:48;24.00;88.00
57410;DHT22;46044;44.738;20.394;2022-08-24T16:02:25;24.00;88.00
57410;DHT22;46044;44.738;20.394;2022-08-24T16:07:56;24.00;89.00
57410;DHT22;46044;44.738;20.394;2022-08-24T16:16:07;25.00;85.00
57410;DHT22;46044;44.738;20.394;2022-08-24T16:18:57;25.00;84.00
57410;DHT22;46044;44.738;20.394;2022-08-24T16:21:45;25.00;83.00
57410;DHT22;46044;44.738;20.394;2022-08-24T16:32:12;25.00;82.00
57410;DHT22;46044;44.738;20.394;2022-08-24T16:37:36;25.00;82.00
57410;DHT22;46044;44.738;20.394;2022-08-24T16:40:04;25.00;82.00
57410;DHT22;46044;44.738;20.394;2022-08-24T16:42:30;25.00;82.00
57410;DHT22;46044;44.738;20.394;2022-08-24T16:44:57;25.00;82.00
57410;DHT22;46044;44.738;20.394;2022-08-24T16:47:25;25.00;82.00
57410;DHT22;46044;44.738;20.394;2022-08-24T16:49:51;24.00;83.00
57410;DHT22;46044;44.738;20.394;2022-08-24T16:52:18;24.00;84.00
57410;DHT22;46044;44.738;20.394;2022-08-24T16:54:44;24.00;84.00
57410;DHT22;46044;44.738;20.394;2022-08-24T16:57:23;24.00;86.00
57410;DHT22;46044;44.738;20.394;2022-08-24T16:59:51;24.00;86.00
57410;DHT22;46044;44.738;20.394;2022-08-24T17:02:18;24.00;87.00
57410;DHT22;46044;44.738;20.394;2022-08-24T17:04:45;23.00;88.00
57410;DHT22;46044;44.738;20.394;2022-08-24T17:07:20;23.00;89.00
57410;DHT22;46044;44.738;20.394;2022-08-24T17:09:47;23.00;90.00
57410;DHT22;46044;44.738;20.394;2022-08-24T17:12:13;23.00;90.00
57410;DHT22;46044;44.738;20.394;2022-08-24T17:14:40;23.00;91.00
57410;DHT22;46044;44.738;20.394;2022-08-24T17:17:08;23.00;91.00
57410;DHT22;46044;44.738;20.394;2022-08-24T17:19:36;23.00;92.00
57410;DHT22;46044;44.738;20.394;2022-08-24T17:22:02;23.00;90.00
57410;DHT22;46044;44.738;20.394;2022-08-24T17:24:29;22.00;91.00
57410;DHT22;46044;44.738;20.394;2022-08-24T17:26:55;22.00;91.00
57410;DHT22;46044;44.738;20.394;2022-08-24T17:29:21;22.00;91.00
57410;DHT22;46044;44.738;20.394;2022-08-24T17:31:48;22.00;92.00
57410;DHT22;46044;44.738;20.394;2022-08-24T17:34:15;22.00;92.00
57410;DHT22;46044;44.738;20.394;2022-08-24T17:36:42;22.00;92.00
57410;DHT22;46044;44.738;20.394;2022-08-24T17:39:10;22.00;92.00
57410;DHT22;46044;44.738;20.394;2022-08-24T17:41:37;22.00;93.00
57410;DHT22;46044;44.738;20.394;2022-08-24T17:44:04;22.00;93.00
57410;DHT22;46044;44.738;20.394;2022-08-24T17:46:31;22.00;94.00
57410;DHT22;46044;44.738;20.394;2022-08-24T17:48:57;22.00;94.00
57410;DHT22;46044;44.738;20.394;2022-08-24T17:51:24;22.00;94.00
57410;DHT22;46044;44.738;20.394;2022-08-24T17:53:50;22.00;94.00
57410;DHT22;46044;44.738;20.394;2022-08-24T17:56:17;22.00;94.00
57410;DHT22;46044;44.738;20.394;2022-08-24T17:58:44;21.00;93.00
57410;DHT22;46044;44.738;20.394;2022-08-24T18:01:30;21.00;93.00
57410;DHT22;46044;44.738;20.394;2022-08-24T18:03:56;21.00;93.00
57410;DHT22;46044;44.738;20.394;2022-08-24T18:06:24;21.00;93.00
57410;DHT22;46044;44.738;20.394;2022-08-24T18:08:53;21.00;93.00
57410;DHT22;46044;44.738;20.394;2022-08-24T18:11:23;21.00;94.00
57410;DHT22;46044;44.738;20.394;2022-08-24T18:13:48;21.00;94.00
57410;DHT22;46044;44.738;20.394;2022-08-24T18:16:20;20.00;93.00
57410;DHT22;46044;44.738;20.394;2022-08-24T18:18:49;20.00;93.00
57410;DHT22;46044;44.738;20.394;2022-08-24T18:21:15;20.00;93.00
57410;DHT22;46044;44.738;20.394;2022-08-24T18:23:41;20.00;93.00
57410;DHT22;46044;44.738;20.394;2022-08-24T18:32:23;20.00;93.00
57410;DHT22;46044;44.738;20.394;2022-08-24T18:34:50;20.00;93.00
57410;DHT22;46044;44.738;20.394;2022-08-24T18:37:20;21.00;94.00
57410;DHT22;46044;44.738;20.394;2022-08-24T18:39:56;20.00;93.00
57410;DHT22;46044;44.738;20.394;2022-08-24T18:42:24;20.00;93.00
57410;DHT22;46044;44.738;20.394;2022-08-24T18:44:52;20.00;93.00
57410;DHT22;46044;44.738;20.394;2022-08-24T18:47:19;20.00;93.00
57410;DHT22;46044;44.738;20.394;2022-08-24T18:49:45;20.00;93.00
57410;DHT22;46044;44.738;20.394;2022-08-24T18:52:13;20.00;93.00
57410;DHT22;46044;44.738;20.394;2022-08-24T18:54:43;20.00;93.00
57410;DHT22;46044;44.738;20.394;2022-08-24T18:57:12;21.00;94.00
57410;DHT22;46044;44.738;20.394;2022-08-24T18:59:38;21.00;92.00
57410;DHT22;46044;44.738;20.394;2022-08-24T19:02:19;21.00;93.00
57410;DHT22;46044;44.738;20.394;2022-08-24T19:05:18;21.00;93.00
57410;DHT22;46044;44.738;20.394;2022-08-24T19:07:51;20.00;93.00
57410;DHT22;46044;44.738;20.394;2022-08-24T19:10:20;20.00;93.00
57410;DHT22;46044;44.738;20.394;2022-08-24T19:12:50;20.00;93.00
57410;DHT22;46044;44.738;20.394;2022-08-24T19:15:18;20.00;93.00
57410;DHT22;46044;44.738;20.394;2022-08-24T19:17:44;20.00;93.00
57410;DHT22;46044;44.738;20.394;2022-08-24T19:20:11;20.00;93.00
57410;DHT22;46044;44.738;20.394;2022-08-24T19:22:38;20.00;93.00
57410;DHT22;46044;44.738;20.394;2022-08-24T19:25:07;20.00;93.00
57410;DHT22;46044;44.738;20.394;2022-08-24T19:27:36;20.00;93.00
57410;DHT22;46044;44.738;20.394;2022-08-24T19:30:03;20.00;93.00
57410;DHT22;46044;44.738;20.394;2022-08-24T19:32:29;20.00;93.00
57410;DHT22;46044;44.738;20.394;2022-08-24T19:34:57;20.00;93.00
57410;DHT22;46044;44.738;20.394;2022-08-24T19:37:24;20.00;93.00
57410;DHT22;46044;44.738;20.394;2022-08-24T19:39:49;20.00;93.00
57410;DHT22;46044;44.738;20.394;2022-08-24T19:42:16;20.00;93.00
57410;DHT22;46044;44.738;20.394;2022-08-24T19:44:42;20.00;93.00
57410;DHT22;46044;44.738;20.394;2022-08-24T19:47:27;20.00;93.00
57410;DHT22;46044;44.738;20.394;2022-08-24T19:49:53;20.00;93.00
57410;DHT22;46044;44.738;20.394;2022-08-24T19:52:19;20.00;93.00
57410;DHT22;46044;44.738;20.394;2022-08-24T19:54:46;20.00;93.00
57410;DHT22;46044;44.738;20.394;2022-08-24T20:02:45;19.00;93.00
57410;DHT22;46044;44.738;20.394;2022-08-24T20:05:12;19.00;93.00
57410;DHT22;46044;44.738;20.394;2022-08-24T20:07:38;19.00;93.00
57410;DHT22;46044;44.738;20.394;2022-08-24T20:10:04;20.00;93.00
57410;DHT22;46044;44.738;20.394;2022-08-24T20:12:31;20.00;93.00
57410;DHT22;46044;44.738;20.394;2022-08-24T20:14:57;19.00;93.00
57410;DHT22;46044;44.738;20.394;2022-08-24T20:17:23;19.00;93.00